createdAt,value
2022-11-26T00:02:04.386Z,101111.66
2022-11-26T00:04:32.582Z,101115.22
2022-11-26T00:07:00.421Z,101114.56
2022-11-26T00:09:28.178Z,101110.97
2022-11-26T00:11:56.036Z,101113.03
2022-11-26T00:14:23.832Z,101113.88
2022-11-26T00:16:51.701Z,101120.53
2022-11-26T00:19:19.583Z,101117.97
2022-11-26T00:21:47.360Z,101120.69
2022-11-26T00:24:15.245Z,101126.16
2022-11-26T00:26:43.044Z,101129.91
2022-11-26T00:29:10.958Z,101121.91
2022-11-26T00:31:38.802Z,101127.34
2022-11-26T00:36:34.537Z,101130.25
2022-11-26T00:39:02.306Z,101135.53
2022-11-26T00:41:30.124Z,101139.44
2022-11-26T00:43:58.944Z,101139.44
2022-11-26T00:46:26.799Z,101148.66
2022-11-26T00:48:54.788Z,101151.41
2022-11-26T00:51:22.614Z,101149.50
2022-11-26T00:53:50.506Z,101146.94
2022-11-26T00:56:18.439Z,101156.00
2022-11-26T00:58:46.225Z,101149.66
2022-11-26T01:01:14.268Z,101150.72
2022-11-26T01:03:43.041Z,101158.88
2022-11-26T01:06:10.964Z,101170.66
2022-11-26T01:08:38.729Z,101165.19
2022-11-26T01:11:06.646Z,101164.34
2022-11-26T01:13:34.431Z,101165.38
2022-11-26T01:16:02.427Z,101169.94
2022-11-26T01:18:31.888Z,101169.94
2022-11-26T01:21:00.193Z,101169.94
2022-11-26T01:23:27.941Z,101178.13
2022-11-26T01:25:55.763Z,101180.00
2022-11-26T01:28:23.741Z,101186.50
2022-11-26T01:30:51.649Z,101181.06
2022-11-26T01:33:19.492Z,101185.47
2022-11-26T01:35:47.447Z,101186.31
2022-11-26T01:38:15.274Z,101186.16
2022-11-26T01:40:43.229Z,101190.06
2022-11-26T01:43:11.080Z,101203.88
2022-11-26T01:45:38.911Z,101198.41
2022-11-26T01:48:06.751Z,101195.53
2022-11-26T01:50:34.631Z,101201.34
2022-11-26T01:53:02.485Z,101194.34
2022-11-26T01:55:30.489Z,101198.75
2022-11-26T01:57:58.241Z,101204.41
2022-11-26T02:00:26.143Z,101203.72
2022-11-26T02:02:55.015Z,101217.50
2022-11-26T02:05:23.051Z,101218.03
2022-11-26T02:07:50.923Z,101217.50
2022-11-26T02:10:18.713Z,101220.22
2022-11-26T02:12:46.492Z,101232.16
2022-11-26T02:15:14.285Z,101223.28
2022-11-26T02:17:42.079Z,101223.47
2022-11-26T02:20:09.933Z,101227.91
2022-11-26T02:22:37.757Z,101228.75
2022-11-26T02:25:05.646Z,101237.09
2022-11-26T02:27:33.423Z,101239.16
2022-11-26T02:30:01.359Z,101245.44
2022-11-26T02:32:29.186Z,101244.59
2022-11-26T02:34:57.042Z,101246.47
2022-11-26T02:37:24.790Z,101241.03
2022-11-26T02:39:52.587Z,101241.03
2022-11-26T02:42:20.379Z,101242.03
2022-11-26T02:44:48.134Z,101249.19
2022-11-26T02:47:18.036Z,101258.38
2022-11-26T02:49:45.771Z,101258.38
2022-11-26T02:52:13.648Z,101254.81
2022-11-26T02:54:41.538Z,101264.69
2022-11-26T02:57:09.329Z,101270.13
2022-11-26T02:59:37.051Z,101263.69
2022-11-26T03:02:04.993Z,101266.56
2022-11-26T03:04:33.007Z,101273.75
2022-11-26T03:07:00.808Z,101278.31
2022-11-26T03:09:28.611Z,101277.31
2022-11-26T03:11:56.394Z,101281.03
2022-11-26T03:14:24.212Z,101280.19
2022-11-26T03:16:52.091Z,101283.94
2022-11-26T03:19:19.976Z,101295.72
2022-11-26T03:21:47.768Z,101291.09
2022-11-26T03:24:15.690Z,101300.31
2022-11-26T03:26:43.481Z,101297.72
2022-11-26T03:29:11.471Z,101308.63
2022-11-26T03:31:39.360Z,101313.09
2022-11-26T03:34:07.610Z,101314.94
2022-11-26T03:36:35.422Z,101318.38
2022-11-26T03:39:03.184Z,101313.94
2022-11-26T03:41:30.992Z,101310.53
2022-11-26T03:43:58.817Z,101319.72
2022-11-26T03:46:26.611Z,101321.56
2022-11-26T03:48:54.371Z,101317.31
2022-11-26T03:51:22.308Z,101322.47
2022-11-26T03:53:50.105Z,101319.03
2022-11-26T03:56:17.897Z,101327.38
2022-11-26T03:58:45.826Z,101338.25
2022-11-26T04:01:13.624Z,101338.44
2022-11-26T04:03:41.533Z,101340.28
2022-11-26T04:06:09.322Z,101338.59
2022-11-26T04:08:37.077Z,101339.44
2022-11-26T04:11:04.900Z,101347.63
2022-11-26T04:13:32.643Z,101344.91
2022-11-26T04:16:00.417Z,101348.66
2022-11-26T04:18:28.254Z,101351.38
2022-11-26T04:20:56.069Z,101352.22
2022-11-26T04:23:24.150Z,101346.63
2022-11-26T04:25:51.922Z,101361.25
2022-11-26T04:28:19.680Z,101360.41
2022-11-26T04:30:47.463Z,101361.25
2022-11-26T04:33:15.433Z,101367.56
2022-11-26T04:35:43.351Z,101370.28
2022-11-26T04:38:11.157Z,101384.78
2022-11-26T04:40:38.930Z,101392.09
2022-11-26T04:43:07.208Z,101390.25
2022-11-26T04:45:35.047Z,101400.28
2022-11-26T04:48:02.920Z,101401.16
2022-11-26T04:50:30.871Z,101403.00
2022-11-26T04:52:58.646Z,101412.06
2022-11-26T04:55:26.615Z,101404.88
2022-11-26T04:57:54.842Z,101413.06
2022-11-26T05:00:22.912Z,101416.63
2022-11-26T05:02:50.695Z,101420.38
2022-11-26T05:05:18.521Z,101429.41
2022-11-26T05:07:46.391Z,101432.97
2022-11-26T05:10:14.305Z,101434.84
2022-11-26T05:12:42.145Z,101436.41
2022-11-26T05:15:10.065Z,101435.72
2022-11-26T05:17:37.894Z,101439.47
2022-11-26T05:20:06.040Z,101442.19
2022-11-26T05:22:33.874Z,101441.34
2022-11-26T05:25:01.717Z,101448.50
2022-11-26T05:27:29.461Z,101447.50
2022-11-26T05:29:57.223Z,101456.53
2022-11-26T05:32:25.020Z,101450.38
2022-11-26T05:34:55.718Z,101457.16
2022-11-26T05:37:27.791Z,101458.66
2022-11-26T05:39:55.607Z,101467.00
2022-11-26T05:42:23.649Z,101455.25
2022-11-26T05:44:51.572Z,101461.69
2022-11-26T05:47:19.390Z,101470.72
2022-11-26T05:49:47.148Z,101475.19
2022-11-26T05:52:14.982Z,101473.19
2022-11-26T05:54:42.833Z,101477.69
2022-11-26T05:57:10.901Z,101494.91
2022-11-26T05:59:38.721Z,101492.84
2022-11-26T06:02:06.613Z,101500.00
2022-11-26T06:04:34.728Z,101498.56
2022-11-26T06:07:02.479Z,101508.66
2022-11-26T06:09:30.280Z,101517.41
2022-11-26T06:11:58.141Z,101510.66
2022-11-26T06:14:25.907Z,101504.19
2022-11-26T06:16:53.733Z,101515.28
2022-11-26T06:19:21.579Z,101512.03
2022-11-26T06:21:49.321Z,101511.66
2022-11-26T06:24:17.096Z,101516.94
2022-11-26T06:26:44.924Z,101521.31
2022-11-26T06:29:13.207Z,101526.22
2022-11-26T06:31:41.013Z,101521.53
2022-11-26T06:34:08.857Z,101524.63
2022-11-26T06:36:36.780Z,101522.69
2022-11-26T06:39:04.573Z,101525.38
2022-11-26T06:41:32.396Z,101523.34
2022-11-26T06:44:00.257Z,101529.97
2022-11-26T06:46:28.016Z,101527.31
2022-11-26T06:48:55.891Z,101531.03
2022-11-26T06:51:27.811Z,101539.16
2022-11-26T06:53:57.713Z,101537.13
2022-11-26T06:56:25.578Z,101540.44
2022-11-26T06:58:55.053Z,101545.47
2022-11-26T07:01:23.867Z,101550.53
2022-11-26T07:03:51.777Z,101551.38
2022-11-26T07:06:19.603Z,101556.59
2022-11-26T07:08:47.405Z,101555.03
2022-11-26T07:11:15.291Z,101559.06
2022-11-26T07:13:43.053Z,101561.13
2022-11-26T07:16:12.418Z,101560.63
2022-11-26T07:18:40.245Z,101563.44
2022-11-26T07:21:08.019Z,101566.66
2022-11-26T07:23:35.784Z,101567.53
2022-11-26T07:26:03.606Z,101565.28
2022-11-26T07:28:31.454Z,101573.16
2022-11-26T07:30:59.254Z,101570.25
2022-11-26T07:33:27.041Z,101567.00
2022-11-26T07:35:56.037Z,101579.94
2022-11-26T07:38:23.805Z,101581.41
2022-11-26T07:40:51.591Z,101587.38
2022-11-26T07:43:19.450Z,101586.38
2022-11-26T07:45:47.332Z,101584.94
2022-11-26T07:48:16.866Z,101583.66
2022-11-26T07:50:45.065Z,101589.91
2022-11-26T07:53:12.844Z,101588.25
2022-11-26T07:55:40.655Z,101591.47
2022-11-26T07:58:08.445Z,101587.75
2022-11-26T08:00:36.228Z,101598.63
2022-11-26T08:03:04.266Z,101606.09
2022-11-26T08:05:32.066Z,101609.75
2022-11-26T08:07:59.951Z,101613.56
2022-11-26T08:10:27.798Z,101624.06
2022-11-26T08:12:55.607Z,101626.00
2022-11-26T08:15:23.368Z,101626.53
2022-11-26T08:17:51.088Z,101623.97
2022-11-26T08:20:18.827Z,101616.63
2022-11-26T08:22:46.629Z,101625.34
2022-11-26T08:25:14.481Z,101623.03
2022-11-26T08:27:42.253Z,101626.47
2022-11-26T08:30:10.024Z,101617.03
2022-11-26T08:32:37.853Z,101623.47
2022-11-26T08:35:05.610Z,101628.44
2022-11-26T08:37:33.354Z,101621.59
2022-11-26T08:40:01.390Z,101632.38
2022-11-26T08:42:29.162Z,101626.75
2022-11-26T08:44:57.008Z,101641.00
2022-11-26T08:47:24.781Z,101642.91
2022-11-26T08:49:52.566Z,101636.31
2022-11-26T08:52:20.294Z,101633.19
2022-11-26T08:54:48.337Z,101648.03
2022-11-26T08:57:16.347Z,101653.81
2022-11-26T08:59:44.116Z,101660.63
2022-11-26T09:02:15.999Z,101658.25
2022-11-26T09:04:46.304Z,101654.13
2022-11-26T09:07:14.141Z,101655.44
2022-11-26T09:09:41.950Z,101649.09
2022-11-26T09:12:10.038Z,101657.38
2022-11-26T09:14:38.105Z,101656.31
2022-11-26T09:17:06.210Z,101659.53
2022-11-26T09:19:33.947Z,101665.44
2022-11-26T09:22:01.730Z,101661.50
2022-11-26T09:24:29.545Z,101675.91
2022-11-26T09:26:58.774Z,101677.22
2022-11-26T09:29:28.279Z,101674.72
2022-11-26T09:32:21.918Z,101674.72
2022-11-26T09:34:43.734Z,101676.28
2022-11-26T09:37:11.567Z,101680.56
2022-11-26T09:39:39.378Z,101684.91
2022-11-26T09:42:07.218Z,101690.22
2022-11-26T09:44:35.094Z,101691.31
2022-11-26T09:47:16.606Z,101692.38
2022-11-26T09:49:44.376Z,101691.91
2022-11-26T09:52:12.171Z,101689.56
2022-11-26T09:54:40.679Z,101685.81
2022-11-26T09:57:08.662Z,101687.19
2022-11-26T09:59:36.470Z,101687.94
2022-11-26T10:02:04.364Z,101688.25
2022-11-26T10:04:33.185Z,101693.91
2022-11-26T10:07:01.052Z,101698.53
2022-11-26T10:09:29.025Z,101693.41
2022-11-26T10:11:56.885Z,101695.94
2022-11-26T10:14:24.706Z,101701.41
2022-11-26T10:16:52.550Z,101699.50
2022-11-26T10:19:20.377Z,101701.88
2022-11-26T10:22:03.540Z,101703.44
2022-11-26T10:24:31.671Z,101703.22
2022-11-26T10:26:59.430Z,101706.50
2022-11-26T10:29:27.204Z,101702.53
2022-11-26T10:31:55.061Z,101693.66
2022-11-26T10:34:22.929Z,101701.31
2022-11-26T10:36:50.711Z,101699.09
2022-11-26T10:39:18.648Z,101698.56
2022-11-26T10:41:46.401Z,101709.97
2022-11-26T10:44:14.176Z,101712.06
2022-11-26T10:46:43.019Z,101703.16
2022-11-26T10:49:11.134Z,101718.69
2022-11-26T10:51:38.951Z,101712.88
2022-11-26T10:54:07.639Z,101705.00
2022-11-26T10:56:35.573Z,101708.94
2022-11-26T10:59:03.326Z,101698.13
2022-11-26T11:01:34.841Z,101702.03
2022-11-26T11:04:08.166Z,101701.66
2022-11-26T11:06:36.725Z,101699.28
2022-11-26T11:09:04.512Z,101704.03
2022-11-26T11:11:32.397Z,101694.28
2022-11-26T11:14:00.237Z,101701.13
2022-11-26T11:16:29.217Z,101704.84
2022-11-26T11:18:57.192Z,101700.41
2022-11-26T11:21:25.051Z,101704.16
2022-11-26T11:24:08.207Z,101700.75
2022-11-26T11:26:36.794Z,101702.78
2022-11-26T11:29:04.659Z,101701.94
2022-11-26T11:31:32.511Z,101711.44
2022-11-26T11:34:00.413Z,101702.56
2022-11-26T11:36:28.559Z,101699.13
2022-11-26T11:38:56.369Z,101705.78
2022-11-26T11:41:24.185Z,101703.22
2022-11-26T11:43:52.056Z,101713.28
2022-11-26T11:46:19.863Z,101716.16
2022-11-26T11:48:47.945Z,101711.03
2022-11-26T11:51:15.771Z,101706.91
2022-11-26T11:53:44.475Z,101706.22
2022-11-26T11:56:12.271Z,101703.81
2022-11-26T11:58:40.085Z,101694.06
2022-11-26T12:01:07.886Z,101698.84
2022-11-26T12:03:35.688Z,101703.44
2022-11-26T12:06:03.514Z,101706.34
2022-11-26T12:08:31.319Z,101712.66
2022-11-26T12:10:59.116Z,101706.34
2022-11-26T12:13:26.909Z,101703.59
2022-11-26T12:15:54.687Z,101712.66
2022-11-26T12:18:22.607Z,101710.94
2022-11-26T12:20:50.407Z,101710.06
2022-11-26T12:23:22.820Z,101713.69
2022-11-26T12:25:52.128Z,101718.44
2022-11-26T12:28:20.237Z,101714.84
2022-11-26T12:30:48.013Z,101715.00
2022-11-26T12:33:15.788Z,101719.75
2022-11-26T12:35:43.527Z,101717.03
2022-11-26T12:38:11.449Z,101722.66
2022-11-26T12:40:42.094Z,101722.81
2022-11-26T12:43:09.855Z,101721.09
2022-11-26T12:45:37.633Z,101726.34
2022-11-26T12:48:05.477Z,101726.34
2022-11-26T12:50:35.279Z,101720.25
2022-11-26T12:53:03.196Z,101724.13
2022-11-26T12:55:31.021Z,101728.78
2022-11-26T12:57:58.876Z,101721.59
2022-11-26T13:00:30.163Z,101730.81
2022-11-26T13:03:00.635Z,101730.13
2022-11-26T13:05:28.418Z,101734.56
2022-11-26T13:07:56.261Z,101728.88
2022-11-26T13:10:24.162Z,101725.09
2022-11-26T13:12:51.917Z,101728.28
2022-11-26T13:15:19.857Z,101723.38
2022-11-26T13:17:47.630Z,101725.28
2022-11-26T13:20:15.455Z,101731.03
2022-11-26T13:22:43.314Z,101721.53
2022-11-26T13:25:11.150Z,101713.16
2022-11-26T13:27:38.914Z,101725.28
2022-11-26T13:30:06.656Z,101708.94
2022-11-26T13:32:34.526Z,101711.59
2022-11-26T13:35:02.373Z,101713.31
2022-11-26T13:37:30.122Z,101716.38
2022-11-26T13:39:57.971Z,101712.13
2022-11-26T13:42:25.749Z,101713.56
2022-11-26T13:44:53.542Z,101718.78
2022-11-26T13:47:21.394Z,101712.47
2022-11-26T13:49:49.180Z,101713.81
2022-11-26T13:52:17.068Z,101722.00
2022-11-26T13:54:44.824Z,101717.78
2022-11-26T13:57:12.613Z,101717.38
2022-11-26T13:59:40.655Z,101726.69
2022-11-26T14:02:08.719Z,101730.50
2022-11-26T14:04:36.499Z,101739.59
2022-11-26T14:07:04.266Z,101737.50
2022-11-26T14:09:32.069Z,101735.19
2022-11-26T14:11:59.874Z,101740.06
2022-11-26T14:14:27.616Z,101730.69
2022-11-26T14:16:55.495Z,101731.63
2022-11-26T14:19:23.297Z,101729.59
2022-11-26T14:21:51.080Z,101730.34
2022-11-26T14:24:18.863Z,101727.91
2022-11-26T14:26:46.608Z,101732.88
2022-11-26T14:29:14.776Z,101735.31
2022-11-26T14:31:42.597Z,101735.66
2022-11-26T14:34:10.395Z,101739.78
2022-11-26T14:36:38.188Z,101740.47
2022-11-26T14:39:05.940Z,101735.00
2022-11-26T14:41:33.672Z,101737.03
2022-11-26T14:44:01.438Z,101737.03
2022-11-26T14:46:29.323Z,101740.19
2022-11-26T14:48:59.926Z,101739.75
2022-11-26T14:51:27.875Z,101747.38
2022-11-26T14:53:55.961Z,101738.66
2022-11-26T14:56:23.814Z,101729.88
2022-11-26T14:58:51.620Z,101732.25
2022-11-26T15:01:19.843Z,101733.66
2022-11-26T15:03:47.638Z,101744.16
2022-11-26T15:06:15.417Z,101736.06
2022-11-26T15:08:43.895Z,101728.09
2022-11-26T15:11:11.857Z,101731.38
2022-11-26T15:13:39.772Z,101725.91
2022-11-26T15:16:07.620Z,101728.63
2022-11-26T15:18:35.439Z,101731.81
2022-11-26T15:21:03.233Z,101726.31
2022-11-26T15:23:32.362Z,101727.09
2022-11-26T15:26:00.543Z,101733.38
2022-11-26T15:28:28.427Z,101735.25
2022-11-26T15:30:56.294Z,101740.88
2022-11-26T15:33:24.113Z,101749.59
2022-11-26T15:35:56.922Z,101750.97
2022-11-26T15:38:24.757Z,101757.06
2022-11-26T15:40:52.604Z,101750.66
2022-11-26T15:43:20.471Z,101756.69
2022-11-26T15:45:48.343Z,101749.91
2022-11-26T15:48:27.043Z,101759.53
2022-11-26T15:50:57.543Z,101765.81
2022-11-26T15:53:25.334Z,101757.78
2022-11-26T15:55:53.084Z,101766.56
2022-11-26T15:58:20.793Z,101758.47
2022-11-26T16:00:48.600Z,101765.47
2022-11-26T16:03:16.332Z,101765.41
2022-11-26T16:05:44.083Z,101766.03
2022-11-26T16:08:12.120Z,101768.03
2022-11-26T16:10:41.558Z,101773.06
2022-11-26T16:13:10.296Z,101767.38
2022-11-26T16:15:38.015Z,101763.38
2022-11-26T16:18:05.757Z,101778.78
2022-11-26T16:20:33.463Z,101778.66
2022-11-26T16:23:01.378Z,101774.75
2022-11-26T16:25:29.142Z,101770.41
2022-11-26T16:27:56.884Z,101777.72
2022-11-26T16:30:24.679Z,101780.81
2022-11-26T16:32:52.481Z,101775.50
2022-11-26T16:35:44.067Z,101789.00
2022-11-26T16:38:08.145Z,101784.44
2022-11-26T16:40:36.021Z,101782.16
2022-11-26T16:43:03.770Z,101779.00
2022-11-26T16:45:31.894Z,101779.03
2022-11-26T16:47:59.586Z,101783.41
2022-11-26T16:50:27.316Z,101781.34
2022-11-26T16:52:55.020Z,101782.94
2022-11-26T16:55:22.780Z,101788.50
2022-11-26T16:57:51.141Z,101783.19
2022-11-26T17:00:18.947Z,101789.22
2022-11-26T17:02:46.778Z,101782.72
2022-11-26T17:05:14.694Z,101793.66
2022-11-26T17:07:42.731Z,101793.84
2022-11-26T17:10:10.575Z,101797.44
2022-11-26T17:12:38.383Z,101794.34
2022-11-26T17:15:06.151Z,101809.56
2022-11-26T17:17:33.951Z,101805.84
2022-11-26T17:20:01.648Z,101801.97
2022-11-26T17:22:29.447Z,101801.97
2022-11-26T17:24:57.202Z,101814.75
2022-11-26T17:27:25.041Z,101824.66
2022-11-26T17:29:52.816Z,101827.19
2022-11-26T17:32:20.616Z,101816.25
2022-11-26T17:34:48.537Z,101816.03
2022-11-26T17:37:16.605Z,101818.22
2022-11-26T17:39:44.553Z,101817.69
2022-11-26T17:42:14.239Z,101819.88
2022-11-26T17:44:42.112Z,101822.69
2022-11-26T17:47:17.351Z,101824.06
2022-11-26T17:49:46.381Z,101823.44
2022-11-26T17:52:14.183Z,101810.66
2022-11-26T17:54:41.964Z,101817.97
2022-11-26T17:57:09.736Z,101815.53
2022-11-26T17:59:37.820Z,101818.19
2022-11-26T18:02:06.014Z,101817.28
2022-11-26T18:04:33.886Z,101819.63
2022-11-26T18:07:01.614Z,101815.75
2022-11-26T18:09:29.440Z,101818.84
2022-11-26T18:11:57.285Z,101801.03
2022-11-26T18:14:25.098Z,101815.38
2022-11-26T18:16:53.087Z,101809.84
2022-11-26T18:19:20.956Z,101817.59
2022-11-26T18:21:48.801Z,101813.22
2022-11-26T18:24:16.632Z,101819.22
2022-11-26T18:26:44.452Z,101821.38
2022-11-26T18:29:12.592Z,101819.78
2022-11-26T18:31:40.351Z,101819.75
2022-11-26T18:34:08.171Z,101822.41
2022-11-26T18:36:35.959Z,101819.16
2022-11-26T18:39:03.759Z,101819.81
2022-11-26T18:41:31.885Z,101819.22
2022-11-26T18:44:24.961Z,101824.34
2022-11-26T18:47:12.512Z,101816.75
2022-11-26T18:49:44.660Z,101821.28
2022-11-26T18:52:21.183Z,101807.56
2022-11-26T18:54:50.659Z,101802.63
2022-11-26T18:57:18.581Z,101804.75
2022-11-26T18:59:46.864Z,101809.91
2022-11-26T19:02:16.213Z,101804.63
2022-11-26T19:04:45.403Z,101806.00
2022-11-26T19:07:13.960Z,101805.28
2022-11-26T19:09:42.457Z,101817.34
2022-11-26T19:12:10.511Z,101813.28
2022-11-26T19:14:38.320Z,101818.09
2022-11-26T19:17:06.268Z,101812.97
2022-11-26T19:19:34.277Z,101815.44
2022-11-26T19:22:02.270Z,101821.16
2022-11-26T19:24:30.190Z,101817.47
2022-11-26T19:26:58.073Z,101820.63
2022-11-26T19:29:26.314Z,101819.47
2022-11-26T19:31:54.441Z,101819.53
2022-11-26T19:34:23.958Z,101820.56
2022-11-26T19:36:53.353Z,101816.28
2022-11-26T19:39:21.386Z,101823.44
2022-11-26T19:41:49.531Z,101817.34
2022-11-26T19:44:17.537Z,101823.84
2022-11-26T19:46:47.954Z,101819.41
2022-11-26T19:49:15.974Z,101813.94
2022-11-26T19:51:44.088Z,101820.69
2022-11-26T19:54:12.458Z,101816.38
2022-11-26T19:56:42.758Z,101809.56
2022-11-26T19:59:13.169Z,101819.63
2022-11-26T20:01:41.425Z,101821.00
2022-11-26T20:04:09.712Z,101818.16
2022-11-26T20:06:38.167Z,101821.41
2022-11-26T20:09:06.653Z,101818.53
2022-11-26T20:11:34.902Z,101825.38
2022-11-26T20:14:03.597Z,101833.69
2022-11-26T20:16:35.016Z,101836.53
2022-11-26T20:19:03.410Z,101834.28
2022-11-26T20:21:32.450Z,101832.16
2022-11-26T20:24:00.535Z,101829.84
2022-11-26T20:26:29.223Z,101820.19
2022-11-26T20:28:57.273Z,101824.91
2022-11-26T20:31:26.742Z,101827.47
2022-11-26T20:33:54.750Z,101818.25
2022-11-26T20:36:23.377Z,101818.13
2022-11-26T20:38:51.550Z,101814.91
2022-11-26T20:41:19.784Z,101812.84
2022-11-26T20:43:47.924Z,101810.78
2022-11-26T20:46:16.004Z,101814.19
2022-11-26T20:48:44.277Z,101805.81
2022-11-26T20:51:12.620Z,101808.00
2022-11-26T20:53:40.762Z,101813.66
2022-11-26T20:56:08.471Z,101812.78
2022-11-26T20:58:36.251Z,101814.75
2022-11-26T21:01:13.912Z,101807.38
2022-11-26T21:03:48.429Z,101814.72
2022-11-26T21:06:18.897Z,101811.63
2022-11-26T21:08:46.873Z,101819.47
2022-11-26T21:11:14.885Z,101821.00
2022-11-26T21:13:46.645Z,101819.78
2022-11-26T21:16:14.760Z,101809.47
2022-11-26T21:18:42.698Z,101816.66
2022-11-26T21:21:10.630Z,101814.53
2022-11-26T21:23:38.581Z,101815.91
2022-11-26T21:26:06.493Z,101819.97
2022-11-26T21:28:34.678Z,101824.22
2022-11-26T21:31:05.730Z,101820.03
2022-11-26T21:33:33.615Z,101827.88
2022-11-26T21:36:01.539Z,101817.44
2022-11-26T21:38:29.374Z,101821.50
2022-11-26T21:40:57.160Z,101819.94
2022-11-26T21:43:24.945Z,101811.38
2022-11-26T21:45:52.768Z,101817.88
2022-11-26T21:48:20.612Z,101812.75
2022-11-26T21:50:48.420Z,101810.31
2022-11-26T21:53:16.190Z,101806.91
2022-11-26T21:55:45.213Z,101804.31
2022-11-26T21:58:13.237Z,101805.50
2022-11-26T22:00:42.440Z,101806.34
2022-11-26T22:03:11.644Z,101810.25
2022-11-26T22:05:41.791Z,101807.84
2022-11-26T22:08:09.550Z,101804.41
2022-11-26T22:10:37.391Z,101805.75
2022-11-26T22:13:05.120Z,101810.38
2022-11-26T22:15:32.872Z,101805.91
2022-11-26T22:18:00.613Z,101814.28
2022-11-26T22:20:28.399Z,101815.44
2022-11-26T22:22:56.178Z,101820.91
2022-11-26T22:25:24.138Z,101829.09
2022-11-26T22:27:51.952Z,101826.38
2022-11-26T22:30:20.769Z,101831.81
2022-11-26T22:32:48.532Z,101824.31
2022-11-26T22:35:16.321Z,101818.84
2022-11-26T22:37:44.085Z,101822.28
2022-11-26T22:40:11.963Z,101830.66
2022-11-26T22:42:39.731Z,101826.91
2022-11-26T22:45:07.511Z,101826.03
2022-11-26T22:47:35.521Z,101824.03
2022-11-26T22:50:03.334Z,101834.94
2022-11-26T22:52:31.063Z,101838.66
2022-11-26T22:54:58.807Z,101830.16
2022-11-26T22:57:26.798Z,101821.97
2022-11-26T22:59:54.580Z,101824.69
2022-11-26T23:02:22.679Z,101828.59
2022-11-26T23:04:50.519Z,101824.88
2022-11-26T23:07:18.480Z,101821.44
2022-11-26T23:09:47.128Z,101821.44
2022-11-26T23:12:15.208Z,101823.31
2022-11-26T23:14:42.995Z,101814.28
2022-11-26T23:17:30.345Z,101819.72
2022-11-26T23:19:58.299Z,101818.84
2022-11-26T23:22:26.106Z,101814.41
2022-11-26T23:24:53.974Z,101816.28
2022-11-26T23:27:33.360Z,101821.75
2022-11-26T23:30:01.185Z,101819.16
2022-11-26T23:32:32.520Z,101816.44
2022-11-26T23:35:00.606Z,101815.75
2022-11-26T23:37:28.555Z,101819.34
2022-11-26T23:39:56.533Z,101812.88
2022-11-26T23:42:24.227Z,101815.59
2022-11-26T23:44:51.966Z,101817.63
2022-11-26T23:47:19.715Z,101810.59
2022-11-26T23:49:47.468Z,101805.13
2022-11-26T23:52:15.194Z,101807.16
2022-11-26T23:54:42.904Z,101809.22
2022-11-26T23:57:14.913Z,101807.47
2022-11-26T23:59:43.098Z,101807.47
